Time;durP1;ratioP1;P1;durP2;ratioP2;P2;SDS_P1;SDS_P2;PMS_P1;PMS_P2;Temp;Humidity;BMP_temperature;BMP_pressure;BME280_temperature;BME280_humidity;BME280_pressure;Samples;Min_cycle;Max_cycle;Signal;HPM_P1;HPM_P2
2021/10/29 00:00:17;;;;;;;12.83;8.10;;;;;;;;;;5059734;28;20540;-71
2021/10/29 00:02:47;;;;;;;10.67;7.77;;;;;;;;;;5059021;28;20516;-73
2021/10/29 00:05:15;;;;;;;10.30;8.03;;;;;;;;;;5058804;28;20453;-71
2021/10/29 00:07:44;;;;;;;10.90;7.60;;;;;;;;;;5059390;28;20566;-71
2021/10/29 00:10:12;;;;;;;9.93;8.77;;;;;;;;;;5058791;28;20482;-72
2021/10/29 00:12:40;;;;;;;12.67;9.10;;;;;;;;;;5060034;28;20472;-71
2021/10/29 00:15:10;;;;;;;12.17;7.10;;;;;;;;;;5058902;28;20845;-71
2021/10/29 00:17:38;;;;;;;11.50;8.07;;;;;;;;;;5059440;28;20510;-71
2021/10/29 00:20:07;;;;;;;11.77;7.87;;;;;;;;;;5058414;28;20488;-71
2021/10/29 00:22:35;;;;;;;14.70;9.23;;;;;;;;;;5058090;28;20540;-71
2021/10/29 00:25:04;;;;;;;11.87;7.80;;;;;;;;;;5058563;28;20457;-71
2021/10/29 00:27:32;;;;;;;12.13;8.43;;;;;;;;;;5057121;28;20726;-71
2021/10/29 00:30:00;;;;;;;11.17;8.20;;;;;;;;;;5049007;28;20518;-71
2021/10/29 00:32:32;;;;;;;10.43;9.33;;;;;;;;;;5044953;28;20471;-71
2021/10/29 00:35:00;;;;;;;10.77;7.60;;;;;;;;;;5046371;28;20470;-71
2021/10/29 00:37:30;;;;;;;11.57;8.93;;;;;;;;;;5038000;28;20458;-72
2021/10/29 00:39:58;;;;;;;11.50;8.10;;;;;;;;;;5037779;28;20454;-71
2021/10/29 00:42:26;;;;;;;10.20;7.37;;;;;;;;;;5037930;28;20458;-71
2021/10/29 00:44:54;;;;;;;12.07;9.53;;;;;;;;;;5038421;28;20454;-71
2021/10/29 00:47:23;;;;;;;13.70;9.23;;;;;;;;;;5038187;28;20533;-71
2021/10/29 00:49:52;;;;;;;12.13;8.40;;;;;;;;;;5038620;28;20458;-72
2021/10/29 00:52:20;;;;;;;11.13;7.17;;;;;;;;;;5038984;28;20454;-71
2021/10/29 00:54:48;;;;;;;14.33;8.30;;;;;;;;;;5037807;28;20486;-71
2021/10/29 00:57:16;;;;;;;10.70;7.97;;;;;;;;;;5037584;28;20579;-71
2021/10/29 00:59:45;;;;;;;14.33;10.97;;;;;;;;;;5037361;28;20490;-71
2021/10/29 01:02:13;;;;;;;13.03;9.47;;;;;;;;;;5038019;28;20837;-71
2021/10/29 01:04:41;;;;;;;12.37;7.93;;;;;;;;;;5037778;28;20752;-71
2021/10/29 01:07:11;;;;;;;11.83;8.63;;;;;;;;;;5037482;28;20470;-71
2021/10/29 01:09:39;;;;;;;13.70;9.37;;;;;;;;;;5039099;28;20498;-72
2021/10/29 01:12:07;;;;;;;10.10;7.27;;;;;;;;;;5039244;28;20541;-71
2021/10/29 01:14:36;;;;;;;13.87;8.60;;;;;;;;;;5038192;28;20458;-71
2021/10/29 01:17:04;;;;;;;17.73;12.80;;;;;;;;;;5039751;28;20476;-71
2021/10/29 01:19:33;;;;;;;12.13;9.30;;;;;;;;;;5039338;28;20450;-71
2021/10/29 01:22:03;;;;;;;14.60;9.27;;;;;;;;;;5038254;28;20454;-71
2021/10/29 01:24:31;;;;;;;11.60;8.30;;;;;;;;;;5038456;28;20454;-72
2021/10/29 01:26:59;;;;;;;13.73;9.17;;;;;;;;;;5038271;28;20455;-71
2021/10/29 01:29:27;;;;;;;14.17;9.77;;;;;;;;;;5038284;28;20499;-71
2021/10/29 01:31:55;;;;;;;12.67;8.37;;;;;;;;;;5036933;28;20458;-71
2021/10/29 01:34:23;;;;;;;13.73;9.27;;;;;;;;;;5038358;28;20920;-71
2021/10/29 01:36:51;;;;;;;14.70;8.50;;;;;;;;;;5037260;28;20483;-71
2021/10/29 01:39:21;;;;;;;14.60;9.80;;;;;;;;;;5037321;28;20485;-71
2021/10/29 01:41:49;;;;;;;15.27;9.80;;;;;;;;;;5037573;28;20462;-72
2021/10/29 01:44:17;;;;;;;19.00;10.77;;;;;;;;;;5037057;28;20489;-71
2021/10/29 01:46:46;;;;;;;21.83;10.43;;;;;;;;;;5040326;28;20462;-71
2021/10/29 01:49:16;;;;;;;11.93;9.40;;;;;;;;;;5037669;28;20504;-72
2021/10/29 01:51:44;;;;;;;18.00;10.63;;;;;;;;;;5037105;28;20450;-71
2021/10/29 01:54:12;;;;;;;14.50;10.60;;;;;;;;;;5036224;28;20469;-71
2021/10/29 01:56:42;;;;;;;15.87;10.73;;;;;;;;;;5037557;28;20737;-71
2021/10/29 01:59:10;;;;;;;15.70;9.77;;;;;;;;;;5037376;28;20482;-71
2021/10/29 02:01:38;;;;;;;18.50;12.40;;;;;;;;;;5036510;28;20544;-71
2021/10/29 02:04:06;;;;;;;20.77;11.60;;;;;;;;;;5037508;28;20547;-71
2021/10/29 02:06:35;;;;;;;16.63;11.07;;;;;;;;;;5035740;28;20545;-71
2021/10/29 02:09:02;;;;;;;18.37;12.73;;;;;;;;;;5036187;28;20959;-71
2021/10/29 02:11:31;;;;;;;21.67;13.00;;;;;;;;;;5037432;28;20462;-71
2021/10/29 02:14:00;;;;;;;20.03;12.07;;;;;;;;;;5036804;28;20462;-70
2021/10/29 02:16:29;;;;;;;16.30;11.40;;;;;;;;;;5036908;28;20540;-72
2021/10/29 02:18:57;;;;;;;17.60;11.10;;;;;;;;;;5038883;28;20465;-72
2021/10/29 02:21:25;;;;;;;21.63;13.07;;;;;;;;;;5057281;28;20470;-72
2021/10/29 02:23:53;;;;;;;18.80;12.07;;;;;;;;;;5057189;28;20540;-72
2021/10/29 02:26:22;;;;;;;18.00;14.70;;;;;;;;;;5057243;28;20891;-72
2021/10/29 02:28:50;;;;;;;15.00;10.17;;;;;;;;;;5056954;28;20482;-72
2021/10/29 02:31:20;;;;;;;20.23;11.57;;;;;;;;;;5056962;28;20484;-72
2021/10/29 02:33:48;;;;;;;20.10;12.37;;;;;;;;;;5057358;28;20461;-72
2021/10/29 02:36:17;;;;;;;17.90;11.00;;;;;;;;;;5056600;28;20460;-71
2021/10/29 02:38:45;;;;;;;16.10;11.53;;;;;;;;;;5057780;28;20489;-71
2021/10/29 02:41:13;;;;;;;17.90;13.20;;;;;;;;;;5056635;28;20460;-71
2021/10/29 02:43:42;;;;;;;20.33;11.97;;;;;;;;;;5057421;28;20858;-72
2021/10/29 02:46:11;;;;;;;19.53;12.73;;;;;;;;;;5056492;28;20466;-72
2021/10/29 02:48:42;;;;;;;21.13;14.30;;;;;;;;;;5057174;28;20481;-71
2021/10/29 02:51:13;;;;;;;16.60;12.17;;;;;;;;;;5056526;28;20823;-71
2021/10/29 02:53:41;;;;;;;15.80;12.63;;;;;;;;;;5056428;28;20457;-71
2021/10/29 02:56:10;;;;;;;40.30;36.50;;;;;;;;;;5057261;28;20465;-71
2021/10/29 02:58:41;;;;;;;22.17;12.60;;;;;;;;;;5036550;28;20739;-71
2021/10/29 03:01:10;;;;;;;20.97;11.20;;;;;;;;;;5052757;28;20449;-71
2021/10/29 03:03:38;;;;;;;23.50;21.20;;;;;;;;;;5057055;28;20454;-71
2021/10/29 03:06:07;;;;;;;20.37;14.13;;;;;;;;;;5056313;28;20467;-72
2021/10/29 03:08:35;;;;;;;20.90;11.97;;;;;;;;;;5056546;28;20485;-71
2021/10/29 03:11:04;;;;;;;17.93;11.23;;;;;;;;;;5056219;28;20461;-71
2021/10/29 03:13:33;;;;;;;28.77;25.87;;;;;;;;;;5057138;28;20878;-71
2021/10/29 03:16:00;;;;;;;20.60;13.03;;;;;;;;;;5056424;28;20453;-71
2021/10/29 03:18:29;;;;;;;23.73;21.30;;;;;;;;;;5057029;28;20571;-71
2021/10/29 03:20:57;;;;;;;20.43;13.53;;;;;;;;;;5057214;28;20714;-71
2021/10/29 03:23:27;;;;;;;20.30;11.93;;;;;;;;;;5055916;28;20465;-71
2021/10/29 03:25:55;;;;;;;16.43;10.60;;;;;;;;;;5056481;28;20453;-71
2021/10/29 03:28:23;;;;;;;19.53;11.50;;;;;;;;;;5059166;28;20745;-71
2021/10/29 03:30:57;;;;;;;21.43;13.27;;;;;;;;;;5060048;28;20445;-71
2021/10/29 03:33:25;;;;;;;21.10;14.53;;;;;;;;;;5059914;28;20511;-72
2021/10/29 03:35:54;;;;;;;18.77;14.47;;;;;;;;;;5059124;28;20706;-71
2021/10/29 03:41:07;;;;;;;22.63;14.10;;;;;;;;;;5050352;28;20518;-71
2021/10/29 03:43:38;;;;;;;19.40;12.80;;;;;;;;;;5059609;28;20458;-71
2021/10/29 03:46:10;;;;;;;20.60;12.37;;;;;;;;;;5060382;28;20532;-72
2021/10/29 03:48:45;;;;;;;18.37;11.30;;;;;;;;;;5059849;28;20484;-72
2021/10/29 03:51:19;;;;;;;34.43;31.17;;;;;;;;;;5059794;28;20489;-72
2021/10/29 03:53:51;;;;;;;22.90;12.60;;;;;;;;;;5059898;28;20834;-72
2021/10/29 03:56:22;;;;;;;22.70;14.57;;;;;;;;;;5059596;28;20462;-72
2021/10/29 03:58:51;;;;;;;21.27;13.17;;;;;;;;;;5058292;28;20528;-72
2021/10/29 04:01:20;;;;;;;20.20;12.10;;;;;;;;;;5058598;28;20449;-72
2021/10/29 04:03:48;;;;;;;21.37;12.93;;;;;;;;;;5058529;28;20465;-72
2021/10/29 04:06:20;;;;;;;20.40;13.13;;;;;;;;;;5059023;28;20797;-72
2021/10/29 04:08:48;;;;;;;22.40;13.13;;;;;;;;;;5058358;28;20554;-72
2021/10/29 04:11:20;;;;;;;24.10;13.67;;;;;;;;;;5059395;28;20441;-72
2021/10/29 04:13:51;;;;;;;23.83;12.07;;;;;;;;;;5060017;28;20495;-72
2021/10/29 04:16:22;;;;;;;20.13;13.50;;;;;;;;;;5059152;28;20457;-72
2021/10/29 04:18:54;;;;;;;19.37;15.63;;;;;;;;;;5059259;28;20468;-73
2021/10/29 04:21:26;;;;;;;26.40;13.17;;;;;;;;;;5058813;28;20453;-73
2021/10/29 04:23:54;;;;;;;15.33;10.67;;;;;;;;;;5059284;28;20463;-72
2021/10/29 04:26:22;;;;;;;22.90;12.60;;;;;;;;;;5059036;28;20487;-72
2021/10/29 04:28:55;;;;;;;20.30;13.80;;;;;;;;;;5058701;28;20580;-72
2021/10/29 04:31:26;;;;;;;25.40;13.83;;;;;;;;;;5059470;28;20461;-71
2021/10/29 04:33:55;;;;;;;22.40;13.17;;;;;;;;;;5059113;28;20479;-72
2021/10/29 04:36:23;;;;;;;26.27;23.77;;;;;;;;;;5059028;28;20489;-72
2021/10/29 04:39:04;;;;;;;20.67;13.13;;;;;;;;;;5058609;28;20791;-72
2021/10/29 04:41:33;;;;;;;19.30;12.97;;;;;;;;;;5058640;28;20881;-71
2021/10/29 04:44:03;;;;;;;23.80;13.57;;;;;;;;;;5059784;28;20458;-71
2021/10/29 04:46:32;;;;;;;22.87;13.10;;;;;;;;;;5058467;28;20519;-71
2021/10/29 04:48:59;;;;;;;20.77;12.90;;;;;;;;;;5058625;28;20489;-71
2021/10/29 04:51:29;;;;;;;26.83;12.33;;;;;;;;;;5059358;28;20531;-71
2021/10/29 04:53:57;;;;;;;27.03;13.13;;;;;;;;;;5057789;28;20457;-71
2021/10/29 04:56:25;;;;;;;20.07;12.90;;;;;;;;;;5058686;28;20461;-71
2021/10/29 04:58:54;;;;;;;28.13;13.93;;;;;;;;;;5058346;28;20890;-71
2021/10/29 05:01:23;;;;;;;28.90;23.23;;;;;;;;;;5057633;28;20531;-71
2021/10/29 05:03:52;;;;;;;19.63;14.67;;;;;;;;;;5057251;28;20849;-71
2021/10/29 05:06:20;;;;;;;22.57;12.67;;;;;;;;;;5057164;28;20560;-71
2021/10/29 05:08:48;;;;;;;22.93;12.97;;;;;;;;;;5057521;28;20481;-72
2021/10/29 05:11:16;;;;;;;22.03;12.63;;;;;;;;;;5037186;28;20482;-71
2021/10/29 05:13:44;;;;;;;23.20;12.33;;;;;;;;;;5037533;28;20468;-71
2021/10/29 05:16:17;;;;;;;24.20;14.40;;;;;;;;;;5037647;28;20972;-72
2021/10/29 05:18:49;;;;;;;26.70;23.90;;;;;;;;;;5037373;28;20482;-72
2021/10/29 05:21:17;;;;;;;21.10;11.80;;;;;;;;;;5037489;28;20469;-72
2021/10/29 05:23:49;;;;;;;19.70;13.17;;;;;;;;;;5046578;28;20548;-72
2021/10/29 05:26:17;;;;;;;22.97;13.33;;;;;;;;;;5042428;28;20465;-72
2021/10/29 05:28:46;;;;;;;26.03;14.37;;;;;;;;;;5044756;28;20926;-72
2021/10/29 05:31:15;;;;;;;18.53;12.27;;;;;;;;;;5046850;28;20445;-72
2021/10/29 05:33:45;;;;;;;23.63;13.37;;;;;;;;;;5057531;28;20522;-72
2021/10/29 05:36:15;;;;;;;21.47;11.97;;;;;;;;;;5057322;28;20511;-71
2021/10/29 05:38:43;;;;;;;18.07;10.60;;;;;;;;;;5057313;28;20453;-71
2021/10/29 05:41:13;;;;;;;25.73;13.37;;;;;;;;;;5057769;28;20460;-71
2021/10/29 05:43:45;;;;;;;19.40;12.30;;;;;;;;;;5062903;28;20510;-73
2021/10/29 05:46:16;;;;;;;20.60;12.40;;;;;;;;;;5078078;28;20705;-71
2021/10/29 05:48:48;;;;;;;23.30;12.90;;;;;;;;;;5077756;28;20539;-72
2021/10/29 05:51:19;;;;;;;22.83;12.77;;;;;;;;;;5074759;28;20937;-72
2021/10/29 05:53:55;;;;;;;22.70;14.23;;;;;;;;;;5075708;28;20492;-72
2021/10/29 05:56:28;;;;;;;24.00;15.00;;;;;;;;;;5076116;28;20732;-71
2021/10/29 05:59:03;;;;;;;24.43;13.43;;;;;;;;;;5056771;28;20458;-72
2021/10/29 06:01:32;;;;;;;22.73;13.37;;;;;;;;;;5050638;28;20884;-72
2021/10/29 06:04:00;;;;;;;25.30;13.90;;;;;;;;;;5053603;28;20497;-71
2021/10/29 06:06:30;;;;;;;26.00;15.40;;;;;;;;;;5055567;28;20493;-73
2021/10/29 06:08:58;;;;;;;25.90;14.90;;;;;;;;;;5055544;28;20485;-72
2021/10/29 06:11:28;;;;;;;21.53;12.90;;;;;;;;;;5052359;28;20535;-72
2021/10/29 06:13:57;;;;;;;24.47;13.97;;;;;;;;;;5048477;28;20469;-72
2021/10/29 06:16:25;;;;;;;22.70;13.13;;;;;;;;;;5055713;28;20450;-72
2021/10/29 06:18:53;;;;;;;23.03;14.60;;;;;;;;;;5048448;28;20465;-72
2021/10/29 06:21:31;;;;;;;29.33;15.30;;;;;;;;;;5037971;28;20454;-72
2021/10/29 06:24:07;;;;;;;29.10;15.07;;;;;;;;;;5038383;28;21028;-73
2021/10/29 06:26:54;;;;;;;27.47;13.77;;;;;;;;;;5049785;28;20445;-74
2021/10/29 06:29:23;;;;;;;24.97;12.50;;;;;;;;;;5056681;28;20543;-72
2021/10/29 06:31:51;;;;;;;25.00;14.00;;;;;;;;;;5055542;28;20744;-72
2021/10/29 06:34:20;;;;;;;23.60;13.83;;;;;;;;;;5036469;28;20457;-72
2021/10/29 06:36:48;;;;;;;24.47;13.37;;;;;;;;;;5049076;28;20465;-72
2021/10/29 06:39:19;;;;;;;20.80;12.97;;;;;;;;;;5056445;28;20450;-72
2021/10/29 06:41:53;;;;;;;25.97;14.80;;;;;;;;;;5055387;28;20935;-73
2021/10/29 06:44:27;;;;;;;26.57;13.30;;;;;;;;;;5054629;28;20450;-73
2021/10/29 07:00:44;;;;;;;25.50;15.50;;;;;;;;;;5055744;28;20499;-74
2021/10/29 07:03:39;;;;;;;24.10;12.97;;;;;;;;;;5060985;28;20440;-73
2021/10/29 07:12:07;;;;;;;23.87;13.37;;;;;;;;;;5059529;28;20421;-72
2021/10/29 07:42:37;;;;;;;22.97;13.60;;;;;;;;;;4997288;28;20463;-74
2021/10/29 07:45:09;;;;;;;22.37;12.17;;;;;;;;;;5045733;28;20872;-73
2021/10/29 07:47:38;;;;;;;24.77;13.77;;;;;;;;;;5058948;28;20522;-72
2021/10/29 07:50:11;;;;;;;26.07;14.20;;;;;;;;;;5057870;28;20492;-73
2021/10/29 07:52:39;;;;;;;22.10;14.50;;;;;;;;;;5058882;28;20489;-73
2021/10/29 07:55:09;;;;;;;22.07;11.47;;;;;;;;;;5058734;28;20441;-72
2021/10/29 07:57:47;;;;;;;17.40;11.80;;;;;;;;;;5045677;28;20516;-74
2021/10/29 08:00:28;;;;;;;21.73;12.17;;;;;;;;;;5058095;28;20444;-73
2021/10/29 08:02:57;;;;;;;28.77;13.77;;;;;;;;;;5058042;28;20449;-73
2021/10/29 08:05:34;;;;;;;21.60;12.10;;;;;;;;;;5059204;28;20449;-73
2021/10/29 08:08:04;;;;;;;20.23;12.67;;;;;;;;;;5059760;28;20448;-74
2021/10/29 08:10:36;;;;;;;22.83;13.57;;;;;;;;;;5058984;28;21120;-72
2021/10/29 08:13:06;;;;;;;28.83;13.70;;;;;;;;;;5058015;28;20445;-72
2021/10/29 08:15:37;;;;;;;21.93;13.60;;;;;;;;;;5057912;28;20462;-72
2021/10/29 08:18:07;;;;;;;24.27;14.50;;;;;;;;;;5058728;28;20795;-72
2021/10/29 08:20:35;;;;;;;23.50;14.60;;;;;;;;;;5059076;28;20437;-73
2021/10/29 08:23:13;;;;;;;22.00;12.47;;;;;;;;;;5060317;28;20544;-73
2021/10/29 08:25:42;;;;;;;21.70;12.17;;;;;;;;;;5059845;28;20555;-72
2021/10/29 08:28:17;;;;;;;25.30;16.93;;;;;;;;;;5059345;28;20450;-73
2021/10/29 08:30:58;;;;;;;18.03;11.47;;;;;;;;;;5057516;28;20912;-72
2021/10/29 08:33:31;;;;;;;21.30;11.90;;;;;;;;;;5058309;28;20893;-72
2021/10/29 08:36:02;;;;;;;20.57;12.30;;;;;;;;;;5058453;28;20462;-72
2021/10/29 08:38:30;;;;;;;23.77;13.77;;;;;;;;;;5059306;28;20480;-72
2021/10/29 08:41:00;;;;;;;22.57;15.30;;;;;;;;;;5058681;28;20529;-72
2021/10/29 08:43:29;;;;;;;23.47;13.23;;;;;;;;;;5059257;28;20452;-72
2021/10/29 08:45:58;;;;;;;20.77;10.90;;;;;;;;;;5058462;28;20477;-72
2021/10/29 08:48:28;;;;;;;25.87;13.43;;;;;;;;;;5057645;28;20453;-72
2021/10/29 08:50:59;;;;;;;22.83;11.63;;;;;;;;;;5059412;28;20546;-73
2021/10/29 08:53:28;;;;;;;17.93;11.00;;;;;;;;;;5059624;28;20802;-73
2021/10/29 08:56:02;;;;;;;18.80;12.13;;;;;;;;;;5058126;28;20441;-71
2021/10/29 08:58:36;;;;;;;23.70;12.30;;;;;;;;;;5059138;28;20453;-72
2021/10/29 09:01:13;;;;;;;20.37;12.33;;;;;;;;;;5058204;28;20954;-72
2021/10/29 09:03:47;;;;;;;21.07;12.80;;;;;;;;;;5057416;28;20807;-72
2021/10/29 09:06:33;;;;;;;23.40;14.40;;;;;;;;;;5054266;28;20454;-71
2021/10/29 09:09:08;;;;;;;24.60;14.00;;;;;;;;;;5058679;28;20531;-72
2021/10/29 09:32:00;;;;;;;19.17;10.90;;;;;;;;;;5054753;28;20491;-71
2021/10/29 09:34:30;;;;;;;16.47;9.43;;;;;;;;;;5055559;28;20476;-71
2021/10/29 09:36:58;;;;;;;20.10;10.50;;;;;;;;;;5056855;28;20540;-71
2021/10/29 09:39:29;;;;;;;16.67;10.73;;;;;;;;;;5056804;28;20457;-72
2021/10/29 09:42:05;;;;;;;13.40;9.00;;;;;;;;;;5058278;28;20852;-71
2021/10/29 09:44:53;;;;;;;13.47;8.50;;;;;;;;;;5054480;28;20453;-73
2021/10/29 09:47:29;;;;;;;15.47;11.57;;;;;;;;;;5050377;28;20545;-72
2021/10/29 09:50:12;;;;;;;13.73;8.47;;;;;;;;;;5039024;28;20495;-71
2021/10/29 09:53:02;;;;;;;17.77;9.20;;;;;;;;;;5036348;28;20458;-71
2021/10/29 09:55:50;;;;;;;13.30;8.97;;;;;;;;;;5050595;28;20438;-71
2021/10/29 09:58:20;;;;;;;13.30;8.60;;;;;;;;;;5044772;28;20457;-72
2021/10/29 10:00:52;;;;;;;14.30;9.90;;;;;;;;;;5056369;28;20507;-72
2021/10/29 10:03:34;;;;;;;11.20;8.60;;;;;;;;;;5064490;28;20471;-70
2021/10/29 10:06:23;;;;;;;9.97;5.83;;;;;;;;;;5065490;28;20492;-72
2021/10/29 10:08:59;;;;;;;14.67;7.80;;;;;;;;;;5056764;28;20513;-71
2021/10/29 10:11:30;;;;;;;12.53;9.80;;;;;;;;;;5050419;28;20477;-72
2021/10/29 10:14:01;;;;;;;20.80;9.70;;;;;;;;;;5054411;28;20453;-71
2021/10/29 10:16:33;;;;;;;12.37;7.47;;;;;;;;;;5040432;28;20454;-71
2021/10/29 10:19:11;;;;;;;13.03;7.67;;;;;;;;;;5040162;28;20476;-70
2021/10/29 10:21:53;;;;;;;14.70;9.80;;;;;;;;;;5052273;28;20451;-70
2021/10/29 10:24:32;;;;;;;14.40;10.73;;;;;;;;;;5047577;28;20470;-70
2021/10/29 10:41:55;;;;;;;14.23;10.67;;;;;;;;;;5055954;28;20441;-71
2021/10/29 10:50:16;;;;;;;12.20;7.30;;;;;;;;;;5052223;28;20632;-71
2021/10/29 10:53:07;;;;;;;10.10;6.90;;;;;;;;;;5051477;28;20477;-71
2021/10/29 10:55:53;;;;;;;14.97;7.07;;;;;;;;;;5026294;28;20496;-72
2021/10/29 10:58:29;;;;;;;9.33;5.50;;;;;;;;;;5055387;28;20509;-74
2021/10/29 11:01:14;;;;;;;10.30;6.90;;;;;;;;;;5051141;28;20449;-73
2021/10/29 11:04:17;;;;;;;11.00;8.03;;;;;;;;;;5053366;28;20874;-72
2021/10/29 11:07:08;;;;;;;11.17;7.60;;;;;;;;;;5054900;28;20481;-72
2021/10/29 11:09:57;;;;;;;10.47;6.83;;;;;;;;;;5053496;28;20909;-71
2021/10/29 11:12:51;;;;;;;8.13;6.40;;;;;;;;;;5053615;28;20711;-72
2021/10/29 11:15:21;;;;;;;9.70;6.60;;;;;;;;;;5044485;28;20803;-72
2021/10/29 11:17:54;;;;;;;8.30;5.40;;;;;;;;;;5043888;28;20466;-72
2021/10/29 11:20:42;;;;;;;8.10;5.80;;;;;;;;;;5050842;28;20514;-72
2021/10/29 11:23:14;;;;;;;9.17;5.37;;;;;;;;;;5054846;28;20445;-73
2021/10/29 11:25:49;;;;;;;9.07;6.70;;;;;;;;;;5055337;28;20454;-71
2021/10/29 11:28:22;;;;;;;9.07;5.27;;;;;;;;;;5053335;28;20901;-70
2021/10/29 11:30:50;;;;;;;8.80;5.20;;;;;;;;;;5055490;28;20550;-72
2021/10/29 11:33:18;;;;;;;12.83;8.63;;;;;;;;;;5054180;28;20477;-72
2021/10/29 11:35:59;;;;;;;9.37;6.50;;;;;;;;;;5054733;28;20468;-72
2021/10/29 11:38:29;;;;;;;12.70;9.13;;;;;;;;;;5059769;28;20471;-72
2021/10/29 11:40:58;;;;;;;10.20;5.23;;;;;;;;;;5055172;28;20544;-72
2021/10/29 11:43:37;;;;;;;14.33;6.97;;;;;;;;;;5055677;28;20457;-72
2021/10/29 11:46:10;;;;;;;11.87;8.47;;;;;;;;;;5052114;28;20457;-73
2021/10/29 11:48:49;;;;;;;15.47;11.33;;;;;;;;;;5055727;28;20900;-71
2021/10/29 11:51:18;;;;;;;12.50;5.90;;;;;;;;;;5057904;28;20559;-73
2021/10/29 11:53:54;;;;;;;20.13;10.90;;;;;;;;;;5057695;28;20865;-71
2021/10/29 11:56:47;;;;;;;8.57;6.07;;;;;;;;;;5058714;28;20752;-72
2021/10/29 11:59:36;;;;;;;10.30;7.70;;;;;;;;;;5056136;28;20556;-71
2021/10/29 12:07:43;;;;;;;4.87;4.37;;;;;;;;;;5054175;28;21072;-73
2021/10/29 12:10:13;;;;;;;12.73;8.53;;;;;;;;;;5056680;28;20457;-72
2021/10/29 12:12:43;;;;;;;13.00;4.93;;;;;;;;;;5056379;28;20454;-71
2021/10/29 12:15:16;;;;;;;8.77;6.30;;;;;;;;;;5056555;28;20527;-72
2021/10/29 12:17:59;;;;;;;15.90;11.03;;;;;;;;;;5057189;28;20454;-73
2021/10/29 12:20:30;;;;;;;6.03;4.50;;;;;;;;;;5057247;28;20437;-72
2021/10/29 12:23:06;;;;;;;6.20;5.13;;;;;;;;;;5058156;28;20465;-71
2021/10/29 12:25:41;;;;;;;7.27;5.53;;;;;;;;;;5056898;28;20468;-72
2021/10/29 12:28:26;;;;;;;7.03;5.63;;;;;;;;;;5056249;28;20552;-72
2021/10/29 12:31:05;;;;;;;11.23;8.00;;;;;;;;;;5056672;28;20485;-74
2021/10/29 12:34:06;;;;;;;11.73;9.50;;;;;;;;;;5057308;28;20441;-71
2021/10/29 12:59:05;;;;;;;7.60;4.63;;;;;;;;;;5043177;28;20445;-73
2021/10/29 13:01:37;;;;;;;5.70;4.43;;;;;;;;;;5040521;28;20507;-71
2021/10/29 13:04:21;;;;;;;8.53;4.93;;;;;;;;;;5057335;28;20441;-73
2021/10/29 13:06:51;;;;;;;10.30;4.93;;;;;;;;;;5055517;28;20519;-70
2021/10/29 13:09:25;;;;;;;7.93;5.30;;;;;;;;;;5050287;28;20458;-71
2021/10/29 13:12:05;;;;;;;7.27;4.47;;;;;;;;;;5057457;28;20477;-72
2021/10/29 13:14:39;;;;;;;10.60;4.53;;;;;;;;;;5056327;28;20485;-75
2021/10/29 13:17:12;;;;;;;7.10;4.80;;;;;;;;;;5055341;28;20484;-71
2021/10/29 13:28:29;;;;;;;8.63;4.40;;;;;;;;;;5054009;28;20417;-72
2021/10/29 13:36:50;;;;;;;8.67;4.13;;;;;;;;;;5055080;28;20429;-71
2021/10/29 13:50:52;;;;;;;8.70;7.00;;;;;;;;;;5055085;28;21895;-71
2021/10/29 13:53:50;;;;;;;9.50;5.00;;;;;;;;;;5055713;28;20546;-73
2021/10/29 13:56:35;;;;;;;10.20;5.00;;;;;;;;;;5054989;28;21005;-73
2021/10/29 13:59:22;;;;;;;4.97;3.27;;;;;;;;;;5042977;28;20458;-72
2021/10/29 14:02:07;;;;;;;8.87;5.63;;;;;;;;;;5039557;28;20466;-72
2021/10/29 14:28:08;;;;;;;6.40;4.33;;;;;;;;;;5044383;28;20770;-71
2021/10/29 14:30:18;;;;;;;7.33;4.83;;;;;;;;;;5054757;28;20440;-71
2021/10/29 14:32:51;;;;;;;8.50;6.23;;;;;;;;;;5047142;28;20576;-71
2021/10/29 14:35:28;;;;;;;7.77;5.07;;;;;;;;;;5055363;28;20441;-71
2021/10/29 14:38:03;;;;;;;6.20;4.20;;;;;;;;;;5054216;28;20460;-71
2021/10/29 14:40:39;;;;;;;5.97;4.97;;;;;;;;;;5054711;28;20445;-70
2021/10/29 14:43:15;;;;;;;7.23;4.73;;;;;;;;;;5034459;28;20465;-71
2021/10/29 14:45:57;;;;;;;14.43;5.07;;;;;;;;;;5037588;28;20450;-73
2021/10/29 14:48:36;;;;;;;11.20;5.80;;;;;;;;;;5044248;28;20564;-70
2021/10/29 14:51:33;;;;;;;6.87;3.80;;;;;;;;;;5035817;28;20493;-70
2021/10/29 15:02:39;;;;;;;6.07;3.97;;;;;;;;;;5045439;28;20495;-70
2021/10/29 15:25:18;;;;;;;10.10;7.10;;;;;;;;;;4996056;28;20429;-71
2021/10/29 15:30:37;;;;;;;11.10;7.00;;;;;;;;;;5040402;28;20473;-71
2021/10/29 15:33:26;;;;;;;11.37;7.50;;;;;;;;;;5056626;28;20481;-70
2021/10/29 15:41:39;;;;;;;7.70;5.77;;;;;;;;;;5055035;28;20434;-72
2021/10/29 15:44:11;;;;;;;10.17;5.80;;;;;;;;;;5057586;28;20706;-72
2021/10/29 15:46:49;;;;;;;11.93;4.90;;;;;;;;;;5042816;28;20485;-73
2021/10/29 15:49:36;;;;;;;11.60;6.60;;;;;;;;;;5045629;28;20462;-71
2021/10/29 15:52:11;;;;;;;13.87;7.80;;;;;;;;;;5055574;28;20479;-71
2021/10/29 15:54:43;;;;;;;12.17;7.10;;;;;;;;;;5050530;28;20464;-73
2021/10/29 15:57:13;;;;;;;12.33;6.97;;;;;;;;;;5058638;28;20551;-71
2021/10/29 15:59:56;;;;;;;10.63;5.40;;;;;;;;;;5051132;28;20546;-73
2021/10/29 16:02:36;;;;;;;13.03;6.83;;;;;;;;;;5050690;28;20446;-72
2021/10/29 16:19:02;;;;;;;11.50;6.63;;;;;;;;;;5057566;28;20899;-71
2021/10/29 16:21:32;;;;;;;12.27;6.97;;;;;;;;;;5058095;28;20542;-73
2021/10/29 16:24:06;;;;;;;7.23;5.03;;;;;;;;;;5058089;28;20448;-71
2021/10/29 16:26:36;;;;;;;12.10;5.80;;;;;;;;;;5056005;28;20452;-70
2021/10/29 16:29:06;;;;;;;10.50;4.60;;;;;;;;;;5057114;28;20495;-70
2021/10/29 16:31:42;;;;;;;9.43;7.17;;;;;;;;;;5058571;28;20477;-71
2021/10/29 16:34:10;;;;;;;8.80;5.73;;;;;;;;;;5056603;28;20459;-71
2021/10/29 16:36:41;;;;;;;9.03;6.10;;;;;;;;;;5073659;28;20488;-71
2021/10/29 16:39:15;;;;;;;9.83;5.80;;;;;;;;;;5078238;28;20453;-71
2021/10/29 16:41:43;;;;;;;8.37;5.23;;;;;;;;;;5077757;28;20459;-71
2021/10/29 16:44:12;;;;;;;9.00;5.50;;;;;;;;;;5076169;28;20527;-72
2021/10/29 16:46:40;;;;;;;8.60;4.80;;;;;;;;;;5065811;28;20458;-71
2021/10/29 16:49:08;;;;;;;7.63;5.33;;;;;;;;;;5057668;28;20441;-72
2021/10/29 16:51:38;;;;;;;7.33;5.07;;;;;;;;;;5057415;28;20485;-72
2021/10/29 16:54:08;;;;;;;9.07;5.63;;;;;;;;;;5056098;28;20449;-71
2021/10/29 16:56:37;;;;;;;12.07;5.70;;;;;;;;;;5057518;28;20496;-72
2021/10/29 16:59:05;;;;;;;7.80;4.30;;;;;;;;;;5056706;28;20575;-72
2021/10/29 17:01:35;;;;;;;10.50;6.40;;;;;;;;;;5057069;28;20446;-71
2021/10/29 17:04:03;;;;;;;10.17;5.57;;;;;;;;;;5053638;28;20523;-72
2021/10/29 17:06:33;;;;;;;9.47;5.50;;;;;;;;;;5056256;28;20523;-70
2021/10/29 17:09:02;;;;;;;11.63;6.10;;;;;;;;;;5057523;28;20445;-72
2021/10/29 17:11:32;;;;;;;12.57;8.53;;;;;;;;;;5057766;28;20477;-71
2021/10/29 17:14:00;;;;;;;11.37;5.33;;;;;;;;;;5058736;28;20442;-73
2021/10/29 17:16:35;;;;;;;9.37;5.00;;;;;;;;;;5058147;28;20472;-72
2021/10/29 17:19:08;;;;;;;14.83;6.40;;;;;;;;;;5058018;28;20547;-70
2021/10/29 17:21:37;;;;;;;8.73;5.03;;;;;;;;;;5057257;28;20450;-70
2021/10/29 17:24:05;;;;;;;12.63;7.27;;;;;;;;;;5056218;28;20495;-71
2021/10/29 17:26:36;;;;;;;12.70;8.50;;;;;;;;;;5056116;28;20449;-71
2021/10/29 17:29:05;;;;;;;13.90;8.10;;;;;;;;;;5055263;28;20457;-71
2021/10/29 17:31:35;;;;;;;16.43;9.50;;;;;;;;;;5054695;28;20884;-72
2021/10/29 17:34:05;;;;;;;13.87;9.53;;;;;;;;;;5055104;28;20465;-72
2021/10/29 17:36:46;;;;;;;11.83;8.20;;;;;;;;;;5044674;28;20839;-73
2021/10/29 17:39:20;;;;;;;13.67;9.00;;;;;;;;;;5051040;28;20514;-71
2021/10/29 17:41:56;;;;;;;14.40;11.20;;;;;;;;;;5056723;28;20536;-73
2021/10/29 17:44:27;;;;;;;9.70;5.33;;;;;;;;;;5054003;28;20556;-72
2021/10/29 17:47:03;;;;;;;10.37;7.47;;;;;;;;;;5056522;28;20450;-72
2021/10/29 17:49:39;;;;;;;10.47;6.90;;;;;;;;;;5057578;28;20472;-72
2021/10/29 17:52:07;;;;;;;13.10;8.20;;;;;;;;;;5056612;28;20896;-71
2021/10/29 17:54:38;;;;;;;15.23;9.40;;;;;;;;;;5057112;28;20531;-72
2021/10/29 17:57:09;;;;;;;21.20;11.03;;;;;;;;;;5056655;28;20450;-71
2021/10/29 17:59:38;;;;;;;9.47;6.70;;;;;;;;;;5057093;28;20874;-71
2021/10/29 18:02:11;;;;;;;12.40;9.73;;;;;;;;;;5055617;28;20515;-71
2021/10/29 18:04:40;;;;;;;14.30;7.00;;;;;;;;;;5057747;28;21127;-72
2021/10/29 18:07:09;;;;;;;12.43;6.77;;;;;;;;;;5056979;28;20548;-72
2021/10/29 18:09:38;;;;;;;17.20;10.57;;;;;;;;;;5057500;28;20461;-72
2021/10/29 18:12:15;;;;;;;18.13;8.97;;;;;;;;;;5056349;28;20490;-72
2021/10/29 18:14:49;;;;;;;9.23;6.17;;;;;;;;;;5054797;28;20445;-70
2021/10/29 18:17:17;;;;;;;12.47;7.00;;;;;;;;;;5054293;28;20947;-71
2021/10/29 18:19:46;;;;;;;13.30;8.30;;;;;;;;;;5056538;28;20460;-71
2021/10/29 18:22:15;;;;;;;16.93;9.30;;;;;;;;;;5056358;28;20461;-71
2021/10/29 18:24:44;;;;;;;14.13;8.33;;;;;;;;;;5056845;28;20500;-72
2021/10/29 18:27:27;;;;;;;15.33;8.10;;;;;;;;;;5056789;28;20527;-73
2021/10/29 18:29:59;;;;;;;17.20;8.97;;;;;;;;;;5055664;28;20931;-72
2021/10/29 18:32:28;;;;;;;13.33;8.60;;;;;;;;;;5055598;28;20515;-72
2021/10/29 18:34:57;;;;;;;17.07;10.43;;;;;;;;;;5056783;28;20457;-72